Aérodrome :
LOGIN :

S'inscrire | Disclaimer

   EN    FR    IT 

 










Légende :    VFR   VFR Marginal   IFR   IFR Intensif   IFR Très Intensif
Visi : 
Plafond : 
>= 8 km
>= 3000ft
5 à 8 km
1000 à 3000 ft
1500m à 5 km
500 à 1000 ft
800 à 1500m
200 à 500 ft
< 800m
< 200 ft
Symboles :   Orages  Brouillard  Fortes neiges  Fortes précipitations  Vent > 20 kt
SIGMETs :   Divers  Orages  Givrage  Turbulence  Onde Orograph.  Cendres Volcan.






- Altitude de l'aérodrome : 374 ft
- Code IATA : LIS


LPPT - Lisboa Portela

DERNIER METAR :
  • 200430Z 35013KT 9999 FEW012 17/14 Q1020

METARs EXPIRÉS :
  • 200400Z 34013KT 300V360 9999 FEW012 17/14 Q1020
  • 200330Z 34014KT 9999 FEW015 17/14 Q1020
  • 200300Z 34012KT 9999 FEW016 17/14 Q1020
  • 200230Z 34014KT 9999 FEW016 17/14 Q1020
  • 200200Z 33016KT 9999 FEW013 18/14 Q1020

TAF TAF LPPT
Valide du 20 à 00h jusqu'au 21 à 06h UTC


192300Z 2000/2106 34013KT CAVOK
TEMPO 2000/2008 9999 SCT010
PROB30
TEMPO 2015/2022 34015G25KT
BECMG 2023/2102 04012KT



MET'MAP, la Météo Aéronautique d'un coup d'oeil ! - Copyright ORBIFLY Décembre 2007 - Disclaimer

ORBIFLY MET'MAP TEAM :

Programmation & Développement : Alexandra Zaïnal
Sur une idée originale de : Baudouin d'Aumeries
Assistance à la programmation : Marc-Olivier Méhu
Soutien technique & logistique : Manuel Goepfert

Contact : metmap@orbifly.com




SOURCES & CREDITS :

   NOAA